Time;durP1;ratioP1;P1;durP2;ratioP2;P2;SDS_P1;SDS_P2;PMS_P1;PMS_P2;Temp;Humidity;BMP_temperature;BMP_pressure;BME280_temperature;BME280_humidity;BME280_pressure;Samples;Min_cycle;Max_cycle;Signal;HPM_P1;HPM_P2
2021/08/14 00:00:18;;;;;;;5.40;4.43;;;;;;;24.50;50.12;101517.81;691781;28;23344;-67
2021/08/14 00:00:39;;;;;;;5.40;4.60;;;;;;;24.50;50.00;101515.06;689322;28;103841;-67
2021/08/14 00:01:00;;;;;;;4.90;4.50;;;;;;;24.49;49.73;101516.16;691694;28;22396;-67
2021/08/14 00:01:21;;;;;;;4.82;4.32;;;;;;;24.47;49.56;101517.25;692386;28;21531;-67
2021/08/14 00:01:42;;;;;;;5.22;4.30;;;;;;;24.47;49.55;101514.50;692987;28;15017;-67
2021/08/14 00:02:04;;;;;;;4.70;4.22;;;;;;;24.47;49.58;101513.66;693314;28;8778;-67
2021/08/14 00:02:26;;;;;;;4.43;4.05;;;;;;;24.47;49.86;101519.19;692155;28;46291;-67
2021/08/14 00:02:47;;;;;;;4.80;4.20;;;;;;;24.45;49.53;101519.44;692187;28;22197;-67
2021/08/14 00:03:08;;;;;;;6.20;4.38;;;;;;;24.45;49.62;101518.56;693136;28;12271;-68
2021/08/14 00:03:30;;;;;;;6.43;4.32;;;;;;;24.45;49.84;101513.06;692916;28;22419;-67
2021/08/14 00:03:51;;;;;;;5.30;4.32;;;;;;;24.42;49.66;101510.78;691131;28;67826;-67
2021/08/14 00:04:12;;;;;;;5.00;4.53;;;;;;;24.46;49.90;101517.50;692333;28;22377;-67
2021/08/14 00:04:34;;;;;;;4.57;4.18;;;;;;;24.43;49.73;101516.06;692639;28;23481;-66
2021/08/14 00:04:55;;;;;;;4.38;4.03;;;;;;;24.43;49.52;101515.25;691911;28;46354;-67
2021/08/14 00:05:17;;;;;;;4.85;4.00;;;;;;;24.43;49.60;101518.81;692439;28;21542;-67
2021/08/14 00:05:38;;;;;;;5.05;4.18;;;;;;;24.44;49.60;101516.94;688948;28;22414;-67
2021/08/14 00:06:00;;;;;;;4.60;4.20;;;;;;;24.44;49.53;101525.22;691453;28;21302;-67
2021/08/14 00:06:21;;;;;;;4.95;4.18;;;;;;;24.43;49.39;101518.00;690756;28;47144;-66
2021/08/14 00:06:42;;;;;;;4.38;3.97;;;;;;;24.43;49.61;101524.34;691585;28;21300;-67
2021/08/14 00:07:04;;;;;;;5.50;4.10;;;;;;;24.44;49.62;101525.22;691519;28;24410;-66
2021/08/14 00:07:26;;;;;;;4.80;4.18;;;;;;;24.44;49.41;101523.28;690375;28;46194;-67
2021/08/14 00:07:48;;;;;;;4.78;4.28;;;;;;;24.44;49.21;101523.28;691484;28;22432;-66
2021/08/14 00:08:09;;;;;;;4.50;4.10;;;;;;;24.45;49.00;101524.09;690880;28;68346;-67
2021/08/14 00:08:30;;;;;;;4.85;4.32;;;;;;;24.44;49.10;101519.69;692511;28;22404;-66
2021/08/14 00:08:52;;;;;;;4.60;4.20;;;;;;;24.42;48.98;101522.69;692521;28;21563;-66
2021/08/14 00:09:13;;;;;;;5.53;4.20;;;;;;;24.44;48.83;101522.44;691274;28;44473;-67
2021/08/14 00:09:35;;;;;;;4.85;3.90;;;;;;;24.43;48.88;101526.28;693671;28;894;-67
2021/08/14 00:09:56;;;;;;;4.40;4.10;;;;;;;24.42;48.64;101535.66;692841;28;20910;-67
2021/08/14 00:10:18;;;;;;;4.88;4.47;;;;;;;24.41;49.06;101523.78;692808;28;22375;-67
2021/08/14 00:10:39;;;;;;;4.90;4.40;;;;;;;24.42;48.80;101530.97;691667;28;46310;-67
2021/08/14 00:11:00;;;;;;;7.90;4.50;;;;;;;24.41;48.83;101520.19;691462;28;44394;-67
2021/08/14 00:11:21;;;;;;;6.22;4.05;;;;;;;24.41;49.08;101526.53;692537;28;22870;-67
2021/08/14 00:11:43;;;;;;;4.47;4.07;;;;;;;24.42;48.99;101524.59;691807;28;46084;-67
2021/08/14 00:12:05;;;;;;;4.63;4.22;;;;;;;24.42;48.73;101524.59;691793;28;46420;-67
2021/08/14 00:12:26;;;;;;;4.57;4.18;;;;;;;24.42;48.71;101525.47;690827;28;68030;-66
2021/08/14 00:12:47;;;;;;;4.50;4.10;;;;;;;24.40;49.07;101522.09;692655;28;21244;-67
2021/08/14 00:13:08;;;;;;;5.25;4.20;;;;;;;24.41;49.08;101526.53;692535;28;22376;-67
2021/08/14 00:13:30;;;;;;;4.50;4.10;;;;;;;24.41;48.96;101525.72;692523;28;18426;-67
2021/08/14 00:13:51;;;;;;;4.50;4.10;;;;;;;24.39;49.05;101525.09;691869;28;46477;-67
2021/08/14 00:14:12;;;;;;;4.90;4.13;;;;;;;24.41;48.71;101526.53;692480;28;9890;-67
2021/08/14 00:14:34;;;;;;;5.55;4.22;;;;;;;24.40;48.51;101527.59;692905;28;22364;-67
2021/08/14 00:14:56;;;;;;;5.47;4.25;;;;;;;24.39;48.68;101528.72;692607;28;23485;-67
2021/08/14 00:15:17;;;;;;;5.50;3.97;;;;;;;24.38;48.25;101529.78;692035;28;45233;-67
2021/08/14 00:15:38;;;;;;;4.40;3.78;;;;;;;24.39;48.62;101533.38;692844;28;23481;-67
2021/08/14 00:16:01;;;;;;;4.70;4.30;;;;;;;24.34;48.23;101522.25;692874;28;1540;-67
2021/08/14 00:16:22;;;;;;;4.55;4.15;;;;;;;24.38;48.33;101523.44;691230;28;69438;-67
2021/08/14 00:16:43;;;;;;;5.03;4.10;;;;;;;24.37;48.06;101527.28;692845;28;23505;-66
2021/08/14 00:17:04;;;;;;;5.70;4.15;;;;;;;24.32;47.93;101528.03;692645;28;23421;-67
2021/08/14 00:17:25;;;;;;;5.00;4.30;;;;;;;24.34;48.01;101523.13;692519;28;21553;-66
2021/08/14 00:17:47;;;;;;;5.65;4.05;;;;;;;24.34;48.05;101533.31;691667;28;19391;-66
2021/08/14 00:18:08;;;;;;;5.90;4.13;;;;;;;24.33;48.12;101529.72;691681;28;45241;-67
2021/08/14 00:18:29;;;;;;;4.55;4.00;;;;;;;24.33;48.43;101523.38;692199;28;18795;-67
2021/08/14 00:18:50;;;;;;;5.15;3.80;;;;;;;24.34;48.05;101528.63;692669;28;22502;-66
2021/08/14 00:19:12;;;;;;;5.68;4.10;;;;;;;24.31;48.18;101529.13;692169;28;22425;-66
2021/08/14 00:19:34;;;;;;;6.10;4.15;;;;;;;24.33;48.18;101534.41;691607;28;45819;-66
2021/08/14 00:19:55;;;;;;;6.03;4.20;;;;;;;24.32;48.39;101528.03;693041;28;11160;-66
2021/08/14 00:20:16;;;;;;;5.28;4.30;;;;;;;24.32;48.01;101530.78;693193;28;11824;-66
2021/08/14 00:20:38;;;;;;;5.10;4.38;;;;;;;24.33;48.08;101539.94;692798;28;23485;-67
2021/08/14 00:20:59;;;;;;;5.85;4.25;;;;;;;24.32;47.90;101529.97;691418;28;46278;-67
2021/08/14 00:21:20;;;;;;;5.45;3.95;;;;;;;24.32;48.32;101528.03;692638;28;22190;-67
2021/08/14 00:21:41;;;;;;;4.70;3.88;;;;;;;24.33;47.99;101526.97;692868;28;23487;-67
2021/08/14 00:22:03;;;;;;;4.97;4.40;;;;;;;24.32;47.93;101533.56;692643;28;21524;-67
2021/08/14 00:22:24;;;;;;;5.60;4.32;;;;;;;24.29;47.72;101526.63;691756;28;44385;-66
2021/08/14 00:22:45;;;;;;;5.22;4.40;;;;;;;24.30;47.61;101530.22;692237;28;22447;-67
2021/08/14 00:23:08;;;;;;;4.65;4.18;;;;;;;24.29;47.76;101532.16;692505;28;21650;-66
2021/08/14 00:23:30;;;;;;;5.68;4.07;;;;;;;24.28;47.83;101535.16;690625;28;69502;-67
2021/08/14 00:23:51;;;;;;;4.75;4.00;;;;;;;24.26;48.01;101527.13;690927;28;45227;-67
2021/08/14 00:24:12;;;;;;;5.13;4.25;;;;;;;24.26;47.90;101531.78;691537;28;23766;-67
2021/08/14 00:24:33;;;;;;;4.60;4.20;;;;;;;24.26;48.08;101531.78;692371;28;21516;-67
2021/08/14 00:24:55;;;;;;;6.03;3.88;;;;;;;24.24;48.31;101532.03;692393;28;21533;-67
2021/08/14 00:25:16;;;;;;;7.05;3.78;;;;;;;24.23;48.06;101527.63;691674;28;46381;-67
2021/08/14 00:25:37;;;;;;;5.35;4.20;;;;;;;24.21;48.25;101531.72;692577;28;23153;-67
2021/08/14 00:25:58;;;;;;;5.90;4.25;;;;;;;24.21;48.35;101529.78;692280;28;23465;-67
2021/08/14 00:26:20;;;;;;;5.05;4.22;;;;;;;24.17;48.41;101527.75;693136;28;13876;-67
2021/08/14 00:26:42;;;;;;;4.68;4.18;;;;;;;24.20;48.38;101530.88;692988;28;20425;-67
2021/08/14 00:27:03;;;;;;;4.78;4.28;;;;;;;24.19;48.50;101531.13;692522;28;22364;-67
2021/08/14 00:27:24;;;;;;;5.72;4.18;;;;;;;24.18;48.07;101526.69;690549;28;45261;-66
2021/08/14 00:27:46;;;;;;;4.78;4.15;;;;;;;24.17;48.10;101541.56;691514;28;14441;-66
2021/08/14 00:28:07;;;;;;;5.53;4.53;;;;;;;24.16;48.49;101529.69;691126;28;44392;-66
2021/08/14 00:28:28;;;;;;;5.25;4.32;;;;;;;24.15;48.65;101532.72;692119;28;22394;-67
2021/08/14 00:28:49;;;;;;;4.90;4.20;;;;;;;24.15;48.37;101530.78;692714;28;19968;-67
2021/08/14 00:29:11;;;;;;;6.72;4.10;;;;;;;24.16;48.34;101531.63;692241;28;15665;-67
2021/08/14 00:29:32;;;;;;;4.68;4.07;;;;;;;24.16;48.76;101532.47;691960;28;44448;-66
2021/08/14 00:29:53;;;;;;;4.70;4.30;;;;;;;24.15;48.72;101536.28;692693;28;22361;-66
2021/08/14 00:30:14;;;;;;;4.82;4.43;;;;;;;24.16;48.50;101534.38;692812;28;21341;-66
2021/08/14 00:30:36;;;;;;;4.60;4.20;;;;;;;24.16;48.60;101529.69;692814;28;22407;-66
2021/08/14 00:30:58;;;;;;;5.40;4.20;;;;;;;24.11;48.63;101530.44;691388;28;44365;-67
2021/08/14 00:31:19;;;;;;;5.65;4.15;;;;;;;24.16;48.63;101537.16;692486;28;21555;-66
2021/08/14 00:31:41;;;;;;;4.90;4.10;;;;;;;24.16;48.82;101531.63;692568;28;22414;-66
2021/08/14 00:32:02;;;;;;;4.47;3.92;;;;;;;24.15;48.70;101535.47;691086;28;45261;-66
2021/08/14 00:32:23;;;;;;;4.97;4.55;;;;;;;24.16;48.46;101542.66;692794;28;22402;-66
2021/08/14 00:32:44;;;;;;;4.72;4.32;;;;;;;24.14;48.38;101534.63;692451;28;21278;-66
2021/08/14 00:33:05;;;;;;;4.43;4.03;;;;;;;24.15;48.68;101541.00;692731;28;22367;-66
2021/08/14 00:33:27;;;;;;;5.20;4.20;;;;;;;24.14;48.67;101537.41;692821;28;21522;-68
2021/08/14 00:33:48;;;;;;;4.55;4.13;;;;;;;24.10;48.56;101534.28;690474;28;45273;-65
2021/08/14 00:34:09;;;;;;;5.60;4.40;;;;;;;24.13;48.46;101545.94;690950;28;22401;-65
2021/08/14 00:34:31;;;;;;;4.57;4.05;;;;;;;24.13;48.33;101541.25;691345;28;24417;-67
2021/08/14 00:34:52;;;;;;;4.53;4.13;;;;;;;24.11;48.36;101541.47;690306;28;46300;-67
2021/08/14 00:35:13;;;;;;;4.20;3.85;;;;;;;24.11;48.66;101544.25;691034;28;22405;-65
2021/08/14 00:35:37;;;;;;;4.70;4.18;;;;;;;24.10;48.57;101542.56;690860;28;21538;-65
2021/08/14 00:35:59;;;;;;;4.72;4.30;;;;;;;24.10;48.59;101544.50;689881;28;92281;-69
2021/08/14 00:36:20;;;;;;;4.65;4.20;;;;;;;24.05;48.42;101536.13;693590;28;874;-67
2021/08/14 00:36:41;;;;;;;4.60;4.00;;;;;;;24.05;48.18;101533.38;692672;28;22216;-65
2021/08/14 00:37:03;;;;;;;4.88;3.95;;;;;;;24.07;48.26;101542.22;691675;28;21525;-67
2021/08/14 00:37:25;;;;;;;4.70;4.20;;;;;;;24.07;48.30;101540.28;691946;28;23542;-65
2021/08/14 00:37:46;;;;;;;4.30;3.90;;;;;;;24.05;48.25;101545.22;691239;28;45206;-68
2021/08/14 00:38:09;;;;;;;4.75;3.90;;;;;;;24.04;48.54;101537.19;691496;28;44480;-65
2021/08/14 00:38:30;;;;;;;5.15;4.00;;;;;;;24.05;48.60;101536.13;692265;28;17082;-65
2021/08/14 00:38:52;;;;;;;4.30;4.00;;;;;;;24.05;48.40;101541.66;692649;28;21542;-65
2021/08/14 00:39:13;;;;;;;4.47;4.07;;;;;;;24.04;48.64;101537.19;692046;28;13067;-66
2021/08/14 00:39:34;;;;;;;6.28;4.47;;;;;;;24.03;48.53;101543.81;692082;28;23574;-65
2021/08/14 00:39:55;;;;;;;8.10;4.47;;;;;;;24.02;48.37;101537.44;692351;28;23435;-66
2021/08/14 00:40:17;;;;;;;5.38;4.32;;;;;;;24.03;48.45;101543.81;692679;28;23483;-65
2021/08/14 00:40:39;;;;;;;4.70;4.10;;;;;;;24.02;48.39;101544.91;691803;28;47191;-65
2021/08/14 00:41:00;;;;;;;5.35;4.05;;;;;;;24.02;48.34;101542.16;691412;28;46476;-65
2021/08/14 00:41:21;;;;;;;4.88;4.07;;;;;;;24.01;48.58;101538.56;692419;28;22431;-66
2021/08/14 00:41:43;;;;;;;5.65;4.07;;;;;;;24.01;48.72;101543.22;692475;28;23489;-65
2021/08/14 00:42:05;;;;;;;5.60;3.90;;;;;;;24.00;48.76;101539.63;691104;28;45264;-68
2021/08/14 00:42:26;;;;;;;4.40;4.00;;;;;;;24.00;48.75;101542.38;692459;28;22278;-69
2021/08/14 00:42:48;;;;;;;4.60;4.10;;;;;;;24.00;48.53;101542.38;691283;28;44403;-66
2021/08/14 00:43:09;;;;;;;6.35;4.25;;;;;;;23.99;48.47;101542.63;691655;28;46238;-65
2021/08/14 00:43:30;;;;;;;5.10;4.20;;;;;;;23.97;48.63;101533.78;692605;28;24074;-65
2021/08/14 00:43:51;;;;;;;6.35;4.25;;;;;;;23.99;48.59;101535.19;692287;28;22395;-65
2021/08/14 00:44:14;;;;;;;4.57;4.18;;;;;;;23.99;48.88;101535.19;691568;28;22412;-64
2021/08/14 00:44:35;;;;;;;4.72;4.00;;;;;;;23.98;48.62;101535.44;690910;28;65608;-65
2021/08/14 00:44:58;;;;;;;4.50;4.10;;;;;;;23.99;48.68;101539.88;692713;28;22128;-65
2021/08/14 00:45:19;;;;;;;4.38;3.97;;;;;;;24.00;48.38;101539.63;692162;28;30640;-67
2021/08/14 00:45:41;;;;;;;5.00;4.20;;;;;;;24.01;48.66;101543.22;692640;28;22538;-65
2021/08/14 00:46:03;;;;;;;5.20;4.13;;;;;;;24.00;48.60;101538.81;690557;28;67529;-65
2021/08/14 00:46:24;;;;;;;4.50;4.10;;;;;;;24.02;48.59;101537.44;691454;28;22390;-66
2021/08/14 00:46:46;;;;;;;4.50;3.80;;;;;;;24.00;48.25;101533.28;692558;28;23552;-66
2021/08/14 00:47:07;;;;;;;5.95;4.35;;;;;;;24.01;48.50;101533.03;693119;28;13679;-66
2021/08/14 00:47:28;;;;;;;4.95;4.18;;;;;;;24.00;48.40;101534.13;691362;28;44366;-67
2021/08/14 00:47:50;;;;;;;6.05;4.20;;;;;;;24.00;48.08;101536.88;691511;28;23618;-65
2021/08/14 00:48:12;;;;;;;4.40;4.00;;;;;;;24.00;48.57;101536.03;692024;28;23461;-66
2021/08/14 00:48:33;;;;;;;4.88;3.92;;;;;;;24.00;48.08;101534.13;691395;28;44214;-66
2021/08/14 00:48:55;;;;;;;4.65;4.18;;;;;;;23.99;48.11;101537.94;692338;28;22429;-65
2021/08/14 00:49:16;;;;;;;4.30;3.90;;;;;;;23.98;48.48;101533.53;691623;28;37724;-64
2021/08/14 00:49:38;;;;;;;5.53;3.95;;;;;;;23.99;48.30;101537.94;692373;28;22447;-67
2021/08/14 00:49:59;;;;;;;5.47;3.97;;;;;;;23.97;48.17;101531.03;688899;28;45060;-66
2021/08/14 00:50:20;;;;;;;5.03;4.20;;;;;;;23.98;48.09;101532.66;692182;28;23771;-66
2021/08/14 00:50:42;;;;;;;4.68;3.95;;;;;;;23.96;48.20;101532.91;691438;28;18171;-66
2021/08/14 00:51:06;;;;;;;5.15;4.00;;;;;;;23.98;48.58;101535.44;692983;28;18623;-65
2021/08/14 00:51:28;;;;;;;5.38;4.10;;;;;;;23.95;48.07;101542.31;690119;28;92277;-66
2021/08/14 00:51:49;;;;;;;4.85;3.95;;;;;;;23.96;48.34;101537.63;691317;28;44118;-66
2021/08/14 00:52:10;;;;;;;5.18;4.10;;;;;;;23.93;48.18;101531.50;692720;28;22882;-65
2021/08/14 00:52:32;;;;;;;5.35;3.80;;;;;;;23.95;48.20;101535.94;691977;28;17610;-67
2021/08/14 00:52:53;;;;;;;4.13;3.72;;;;;;;23.95;48.02;101535.94;691701;28;46062;-66
2021/08/14 00:53:15;;;;;;;3.92;3.63;;;;;;;23.93;48.11;101534.28;693144;28;10131;-66
2021/08/14 00:53:37;;;;;;;4.18;3.78;;;;;;;23.95;47.94;101536.78;691940;28;46253;-66
2021/08/14 00:54:45;;;;;;;4.72;4.05;;;;;;;23.94;47.89;101532.34;688333;28;138555;-65
2021/08/14 00:55:07;;;;;;;4.40;4.00;;;;;;;23.95;48.20;101535.94;691885;28;46431;-66
2021/08/14 00:55:28;;;;;;;4.25;3.85;;;;;;;23.95;47.95;101541.44;691717;28;43801;-65
2021/08/14 00:55:51;;;;;;;4.13;3.72;;;;;;;23.93;48.20;101545.31;692582;28;1801;-67
2021/08/14 00:56:20;;;;;;;4.70;3.90;;;;;;;23.94;48.03;101540.63;691648;28;37800;-67
2021/08/14 00:56:50;;;;;;;4.28;3.97;;;;;;;23.93;48.17;101541.69;690278;28;83191;-68
2021/08/14 00:57:11;;;;;;;4.40;4.00;;;;;;;23.93;47.96;101539.78;689927;28;71682;-67
2021/08/14 00:57:32;;;;;;;4.38;3.97;;;;;;;23.89;47.86;101532.25;692003;28;15913;-68
2021/08/14 00:57:54;;;;;;;3.90;3.60;;;;;;;23.93;47.81;101534.28;692002;28;22985;-67
2021/08/14 00:58:15;;;;;;;4.47;3.85;;;;;;;23.94;47.93;101537.84;691073;28;70378;-67
2021/08/14 00:58:37;;;;;;;4.82;3.80;;;;;;;23.91;48.04;101541.13;692483;28;21955;-67
2021/08/14 00:58:58;;;;;;;4.25;3.95;;;;;;;23.92;47.59;101537.28;691347;28;46302;-67
2021/08/14 00:59:20;;;;;;;4.65;4.13;;;;;;;23.90;47.89;101533.91;692196;28;17611;-67
2021/08/14 00:59:44;;;;;;;5.68;4.18;;;;;;;23.90;47.77;101533.91;691867;28;44602;-67
2021/08/14 01:00:07;;;;;;;5.30;4.07;;;;;;;23.90;47.88;101534.75;690256;28;85792;-67
2021/08/14 01:00:28;;;;;;;4.43;3.70;;;;;;;23.89;47.98;101535.84;690873;28;69426;-67
2021/08/14 01:00:50;;;;;;;5.95;4.00;;;;;;;23.90;47.76;101540.28;692490;28;1267;-67
2021/08/14 01:01:11;;;;;;;6.50;4.13;;;;;;;23.89;47.88;101544.13;691689;28;46361;-66
2021/08/14 01:01:33;;;;;;;5.03;3.83;;;;;;;23.90;47.88;101540.28;693300;28;6865;-67
2021/08/14 01:01:54;;;;;;;4.57;4.10;;;;;;;23.91;47.87;101541.13;691668;28;45786;-65
2021/08/14 01:02:18;;;;;;;4.70;4.07;;;;;;;23.90;47.86;101534.75;692752;28;22319;-67
2021/08/14 01:02:39;;;;;;;4.55;4.13;;;;;;;23.91;48.04;101539.19;690843;28;64627;-64
2021/08/14 01:03:01;;;;;;;5.50;3.88;;;;;;;23.92;47.84;101540.03;692649;28;20532;-66
2021/08/14 01:03:22;;;;;;;4.50;3.80;;;;;;;23.92;47.73;101540.03;691823;28;45380;-66
2021/08/14 01:03:45;;;;;;;4.50;4.07;;;;;;;23.92;47.98;101537.28;691603;28;46669;-64
2021/08/14 01:04:08;;;;;;;6.07;4.30;;;;;;;23.91;47.51;101539.19;691443;28;46358;-66
2021/08/14 01:04:29;;;;;;;5.65;4.22;;;;;;;23.91;47.65;101539.19;690968;28;69421;-66
2021/08/14 01:04:51;;;;;;;4.93;4.22;;;;;;;23.91;47.71;101541.13;692200;28;34125;-66
2021/08/14 01:05:13;;;;;;;4.55;4.15;;;;;;;23.89;47.58;101538.59;692598;28;22490;-66
2021/08/14 01:05:36;;;;;;;4.40;4.00;;;;;;;23.92;47.68;101540.03;693291;28;958;-66
2021/08/14 01:05:58;;;;;;;5.15;3.85;;;;;;;23.91;47.71;101541.13;693146;28;1500;-64
2021/08/14 01:06:20;;;;;;;6.37;4.10;;;;;;;23.89;47.92;101544.13;690326;28;67347;-66
2021/08/14 01:06:42;;;;;;;4.72;4.28;;;;;;;23.90;47.73;101539.44;691836;28;41814;-67
2021/08/14 01:07:03;;;;;;;5.93;4.20;;;;;;;23.89;47.75;101543.28;691929;28;38874;-67
2021/08/14 01:07:24;;;;;;;4.40;4.00;;;;;;;23.91;47.71;101541.13;692176;28;23529;-68
2021/08/14 01:07:48;;;;;;;11.05;7.35;;;;;;;23.88;47.88;101541.59;692629;28;1559;-66
2021/08/14 01:08:10;;;;;;;13.80;10.13;;;;;;;23.88;47.95;101542.44;691927;28;40234;-67
2021/08/14 01:08:33;;;;;;;14.43;10.48;;;;;;;23.87;47.88;101534.41;693218;28;1221;-66
2021/08/14 01:08:59;;;;;;;9.18;7.82;;;;;;;23.88;47.66;101542.44;691179;28;61840;-66
2021/08/14 01:09:21;;;;;;;10.52;8.88;;;;;;;23.88;47.71;101549.88;692241;28;21499;-66
2021/08/14 01:09:42;;;;;;;12.15;9.35;;;;;;;23.87;47.83;101540.78;692254;28;36507;-67
2021/08/14 01:10:05;;;;;;;9.93;8.18;;;;;;;23.86;47.64;101541.84;693380;28;952;-66
2021/08/14 01:10:26;;;;;;;7.90;6.55;;;;;;;23.84;47.79;101540.41;690875;28;68404;-68
2021/08/14 01:10:48;;;;;;;6.15;5.55;;;;;;;23.83;47.75;101539.56;692402;28;23186;-67
2021/08/14 01:11:11;;;;;;;9.18;6.95;;;;;;;23.82;47.83;101542.56;692570;28;21688;-66
2021/08/14 01:11:32;;;;;;;9.88;7.80;;;;;;;23.82;47.99;101542.56;690746;28;70449;-67
2021/08/14 01:11:54;;;;;;;9.98;7.63;;;;;;;23.83;48.15;101538.72;692570;28;22333;-67
2021/08/14 01:12:16;;;;;;;7.18;6.47;;;;;;;23.83;47.99;101547.00;691888;28;47582;-67
2021/08/14 01:12:37;;;;;;;5.70;5.10;;;;;;;23.81;47.90;101541.72;690879;28;63505;-66
2021/08/14 01:12:59;;;;;;;5.28;4.88;;;;;;;23.79;47.81;101545.81;692526;28;21722;-66
2021/08/14 01:13:21;;;;;;;6.57;5.97;;;;;;;23.77;47.84;101543.28;692281;28;23762;-67
2021/08/14 01:13:43;;;;;;;6.10;5.50;;;;;;;23.77;47.78;101545.22;692582;28;29847;-67
2021/08/14 01:14:06;;;;;;;5.50;4.82;;;;;;;23.74;48.09;101550.13;691217;28;56600;-67
2021/08/14 01:14:28;;;;;;;5.10;4.63;;;;;;;23.74;48.20;101546.53;691896;28;41783;-67
2021/08/14 01:14:49;;;;;;;4.95;4.55;;;;;;;23.74;48.12;101549.31;691803;28;47447;-67
2021/08/14 01:15:11;;;;;;;8.52;4.60;;;;;;;23.73;48.27;101540.19;693870;28;882;-67
2021/08/14 01:15:32;;;;;;;6.03;4.38;;;;;;;23.72;48.06;101546.78;690246;28;67478;-67
2021/08/14 01:15:54;;;;;;;6.50;4.30;;;;;;;23.70;48.36;101542.63;692124;28;23422;-67
2021/08/14 01:16:15;;;;;;;5.30;4.40;;;;;;;23.70;48.16;101548.97;692651;28;22387;-66
2021/08/14 01:16:37;;;;;;;5.03;4.32;;;;;;;23.71;48.32;101545.09;692712;28;22404;-67
2021/08/14 01:16:58;;;;;;;5.00;4.13;;;;;;;23.68;48.33;101548.38;691707;28;42820;-66
2021/08/14 01:17:21;;;;;;;5.15;4.40;;;;;;;23.70;48.13;101548.13;692155;28;22414;-66
2021/08/14 01:17:43;;;;;;;4.93;4.30;;;;;;;23.68;48.24;101545.63;688414;28;89127;-68
2021/08/14 01:18:04;;;;;;;5.15;3.90;;;;;;;23.69;48.67;101543.69;691552;28;47045;-67
2021/08/14 01:18:25;;;;;;;4.47;3.97;;;;;;;23.68;48.50;101550.28;692108;28;23425;-67
2021/08/14 01:18:47;;;;;;;4.90;4.13;;;;;;;23.66;48.52;101541.44;692590;28;23521;-68
2021/08/14 01:19:09;;;;;;;5.65;4.20;;;;;;;23.67;48.58;101545.88;692674;28;5520;-67
2021/08/14 01:19:30;;;;;;;5.18;4.30;;;;;;;23.67;48.56;101551.38;691453;28;45399;-67
2021/08/14 01:19:51;;;;;;;4.22;3.83;;;;;;;23.69;48.51;101543.69;691676;28;47366;-67
2021/08/14 01:20:15;;;;;;;4.10;3.70;;;;;;;23.68;48.55;101548.38;692602;28;22010;-67
2021/08/14 01:20:36;;;;;;;4.63;4.10;;;;;;;23.70;48.61;101559.16;689531;28;51276;-67
2021/08/14 01:20:57;;;;;;;4.85;4.30;;;;;;;23.69;48.33;101552.78;691060;28;22410;-67
2021/08/14 01:21:19;;;;;;;4.78;4.20;;;;;;;23.69;48.56;101550.03;691345;28;17505;-67
2021/08/14 01:21:46;;;;;;;4.28;3.88;;;;;;;23.68;48.38;101556.66;686888;28;46835;-66
2021/08/14 01:22:11;;;;;;;4.15;3.75;;;;;;;23.66;48.59;101550.53;684372;28;139177;-67
2021/08/14 01:22:33;;;;;;;6.97;4.10;;;;;;;23.67;48.56;101551.38;686689;28;137763;-66
2021/08/14 01:22:54;;;;;;;8.18;4.28;;;;;;;23.67;48.67;101548.63;692490;28;23529;-66
2021/08/14 01:23:16;;;;;;;4.57;4.10;;;;;;;23.66;48.80;101553.28;692657;28;16574;-66
2021/08/14 01:23:41;;;;;;;4.25;3.85;;;;;;;23.66;48.74;101547.78;691824;28;47424;-66
2021/08/14 01:24:03;;;;;;;5.93;4.20;;;;;;;23.66;48.86;101549.69;689151;28;116097;-66
2021/08/14 01:24:24;;;;;;;5.97;4.30;;;;;;;23.65;48.61;101554.38;691518;28;45222;-66
2021/08/14 01:24:46;;;;;;;4.28;3.88;;;;;;;23.65;48.50;101548.00;692652;28;23505;-67
2021/08/14 01:25:09;;;;;;;4.63;4.22;;;;;;;23.64;48.45;101549.13;691431;28;44383;-66
2021/08/14 01:25:30;;;;;;;4.32;3.92;;;;;;;23.63;48.74;101553.78;690723;28;70293;-66
2021/08/14 01:26:04;;;;;;;4.78;3.75;;;;;;;23.63;48.66;101555.69;691524;28;22219;-67
2021/08/14 01:26:26;;;;;;;4.00;3.60;;;;;;;23.63;48.86;101552.94;687806;28;137084;-66
2021/08/14 01:26:49;;;;;;;4.25;3.90;;;;;;;23.62;49.04;101549.34;691940;28;43701;-65
2021/08/14 01:27:10;;;;;;;4.57;4.18;;;;;;;23.60;48.95;101551.50;690924;28;69342;-66
2021/08/14 01:27:33;;;;;;;4.70;4.18;;;;;;;23.60;48.74;101553.44;691345;28;27346;-67
2021/08/14 01:27:55;;;;;;;4.57;4.18;;;;;;;23.60;48.72;101556.19;690226;28;69454;-66
2021/08/14 01:28:16;;;;;;;4.50;3.97;;;;;;;23.60;49.07;101554.25;691809;28;46431;-66
2021/08/14 01:28:38;;;;;;;5.55;4.13;;;;;;;23.61;48.87;101547.69;692654;28;22611;-66
2021/08/14 01:28:59;;;;;;;4.55;4.15;;;;;;;23.61;49.05;101555.13;691622;28;45048;-66
2021/08/14 01:29:21;;;;;;;4.63;4.10;;;;;;;23.61;48.94;101557.88;691898;28;23248;-66
2021/08/14 01:29:42;;;;;;;6.63;4.20;;;;;;;23.58;48.95;101549.00;691871;28;44389;-67
2021/08/14 01:30:04;;;;;;;5.25;4.30;;;;;;;23.61;48.89;101557.88;692497;28;22476;-66
2021/08/14 01:30:25;;;;;;;6.82;4.07;;;;;;;23.60;48.90;101554.25;691131;28;69405;-67
2021/08/14 01:30:47;;;;;;;7.07;4.28;;;;;;;23.59;48.89;101549.84;691455;28;45206;-67
2021/08/14 01:31:10;;;;;;;4.68;4.22;;;;;;;23.58;48.89;101550.91;691624;28;44413;-66
2021/08/14 01:31:32;;;;;;;4.78;4.30;;;;;;;23.58;49.13;101551.75;690377;28;69204;-66
2021/08/14 01:31:54;;;;;;;4.95;4.40;;;;;;;23.59;49.17;101555.38;692359;28;17614;-66
2021/08/14 01:32:15;;;;;;;5.85;4.25;;;;;;;23.58;48.92;101553.69;691294;28;44884;-66
2021/08/14 01:32:36;;;;;;;5.40;4.32;;;;;;;23.56;48.89;101553.91;691048;28;22416;-67
2021/08/14 01:32:57;;;;;;;4.97;4.13;;;;;;;23.57;48.99;101549.22;691262;28;18551;-66
2021/08/14 01:33:19;;;;;;;5.68;3.97;;;;;;;23.57;49.05;101552.00;692426;28;21315;-67
2021/08/14 01:33:42;;;;;;;4.70;4.30;;;;;;;23.57;49.13;101561.13;691412;28;40896;-66
2021/08/14 01:34:03;;;;;;;6.20;4.30;;;;;;;23.56;49.08;101553.91;690652;28;64535;-66
2021/08/14 01:34:24;;;;;;;4.97;4.20;;;;;;;23.57;49.11;101555.59;691558;28;21578;-66
2021/08/14 01:34:48;;;;;;;4.93;4.35;;;;;;;23.57;49.36;101558.38;692127;28;15304;-66
2021/08/14 01:35:10;;;;;;;4.57;4.18;;;;;;;23.56;49.15;101555.84;689768;28;93314;-66
2021/08/14 01:35:31;;;;;;;4.78;3.90;;;;;;;23.54;49.24;101558.84;692429;28;21460;-67
2021/08/14 01:35:52;;;;;;;5.90;4.30;;;;;;;23.55;49.22;101557.75;692202;28;23435;-66
2021/08/14 01:36:16;;;;;;;4.65;4.05;;;;;;;23.54;49.40;101564.38;691322;28;47001;-66
2021/08/14 01:36:37;;;;;;;4.57;4.05;;;;;;;23.53;49.49;101557.16;690975;28;69528;-67
2021/08/14 01:37:00;;;;;;;4.05;3.72;;;;;;;23.53;49.20;101559.91;691846;28;21397;-66
2021/08/14 01:37:21;;;;;;;4.65;4.10;;;;;;;23.54;49.26;101555.25;690691;28;69666;-67
2021/08/14 01:37:43;;;;;;;4.55;4.10;;;;;;;23.53;49.30;101556.34;690203;28;47883;-66
2021/08/14 01:38:04;;;;;;;4.40;4.05;;;;;;;23.53;49.25;101559.91;692612;28;18492;-67
2021/08/14 01:38:25;;;;;;;4.68;4.28;;;;;;;23.52;49.29;101561.00;692500;28;22527;-67
2021/08/14 01:38:47;;;;;;;5.18;4.30;;;;;;;23.53;49.60;101553.59;692625;28;21500;-66
2021/08/14 01:39:14;;;;;;;4.80;4.05;;;;;;;23.51;49.54;101555.72;690823;28;67373;-66
2021/08/14 01:39:35;;;;;;;4.70;4.30;;;;;;;23.50;49.35;101551.31;688349;28;135685;-67
2021/08/14 01:39:56;;;;;;;7.72;4.30;;;;;;;23.50;49.70;101554.06;692401;28;21330;-66
2021/08/14 01:40:17;;;;;;;7.28;4.22;;;;;;;23.49;49.68;101547.69;692222;28;22404;-67
2021/08/14 01:40:39;;;;;;;5.63;4.00;;;;;;;23.50;49.79;101554.91;691996;28;22395;-66
2021/08/14 01:41:05;;;;;;;5.75;4.25;;;;;;;23.51;49.49;101559.34;690401;28;69723;-66
2021/08/14 01:41:27;;;;;;;4.43;4.03;;;;;;;23.51;49.36;101564.00;687656;28;115042;-66
2021/08/14 01:41:58;;;;;;;4.40;3.88;;;;;;;23.50;49.56;101562.34;686770;28;46138;-66
2021/08/14 01:42:19;;;;;;;7.35;4.03;;;;;;;23.49;49.73;101555.97;684440;28;136105;-66
2021/08/14 01:42:40;;;;;;;6.03;4.03;;;;;;;23.49;49.33;101563.41;687928;28;22378;-66
2021/08/14 01:43:01;;;;;;;4.35;3.90;;;;;;;23.49;49.70;101555.97;688168;28;21554;-66
2021/08/14 01:43:23;;;;;;;4.10;3.67;;;;;;;23.48;49.75;101557.06;690855;28;23419;-66
2021/08/14 01:43:56;;;;;;;4.32;3.80;;;;;;;23.48;49.90;101558.97;691745;28;46325;-66